createdAt,value
2022-12-09T00:01:37.035Z,125.63
2022-12-09T00:04:05.482Z,129.52
2022-12-09T00:06:33.551Z,102.30
2022-12-09T00:09:01.902Z,105.07
2022-12-09T00:11:29.739Z,91.05
2022-12-09T00:13:59.782Z,85.65
2022-12-09T00:16:27.556Z,90.93
2022-12-09T00:18:56.757Z,94.60
2022-12-09T00:21:32.936Z,91.80
2022-12-09T00:24:08.028Z,92.50
2022-12-09T00:26:35.930Z,172.90
2022-12-09T00:29:04.710Z,92.20
2022-12-09T00:31:37.612Z,85.57
2022-12-09T00:34:10.898Z,97.00
2022-12-09T00:36:40.073Z,102.15
2022-12-09T00:39:08.348Z,93.03
2022-12-09T00:41:35.900Z,78.97
2022-12-09T00:44:04.728Z,74.28
2022-12-09T00:46:32.527Z,72.28
2022-12-09T00:49:00.673Z,74.95
2022-12-09T00:51:28.528Z,73.95
2022-12-09T00:53:56.871Z,69.50
2022-12-09T00:56:28.516Z,69.57
2022-12-09T00:58:59.301Z,55.22
2022-12-09T01:01:28.482Z,62.03
2022-12-09T01:03:58.048Z,60.40
2022-12-09T01:06:27.505Z,69.22
2022-12-09T01:08:55.857Z,66.30
2022-12-09T01:11:28.957Z,73.40
2022-12-09T01:14:03.058Z,61.92
2022-12-09T01:16:34.887Z,68.38
2022-12-09T01:19:08.604Z,67.70
2022-12-09T01:21:38.391Z,65.32
2022-12-09T01:24:10.862Z,67.72
2022-12-09T01:26:39.413Z,54.33
2022-12-09T01:29:07.454Z,56.10
2022-12-09T01:31:36.736Z,45.88
2022-12-09T01:34:05.751Z,51.20
2022-12-09T01:36:33.736Z,51.58
2022-12-09T01:39:02.073Z,47.80
2022-12-09T01:41:30.229Z,49.45
2022-12-09T01:44:26.631Z,40.55
2022-12-09T01:47:01.214Z,45.85
2022-12-09T01:49:37.389Z,54.20
2022-12-09T01:52:19.097Z,40.15
2022-12-09T01:54:51.255Z,43.13
2022-12-09T01:57:19.748Z,39.58
2022-12-09T01:59:48.431Z,41.95
2022-12-09T02:02:19.240Z,39.97
2022-12-09T02:04:50.407Z,40.88
2022-12-09T02:07:20.557Z,39.20
2022-12-09T02:09:53.418Z,40.42
2022-12-09T02:12:54.525Z,40.45
2022-12-09T02:15:32.747Z,39.78
2022-12-09T02:18:34.897Z,42.10
2022-12-09T02:21:24.415Z,41.22
2022-12-09T02:24:11.657Z,44.22
2022-12-09T02:26:54.032Z,43.13
2022-12-09T02:29:30.598Z,48.40
2022-12-09T02:32:49.185Z,42.53
2022-12-09T02:36:00.370Z,43.53
2022-12-09T02:38:35.908Z,38.05
2022-12-09T02:41:15.394Z,42.30
2022-12-09T02:43:52.612Z,38.08
2022-12-09T02:46:28.392Z,39.55
2022-12-09T02:49:00.310Z,37.58
2022-12-09T02:51:33.044Z,43.10
2022-12-09T02:54:13.372Z,40.20
2022-12-09T02:56:50.349Z,32.38
2022-12-09T02:59:18.725Z,39.25
2022-12-09T03:02:18.739Z,36.45
2022-12-09T03:05:08.752Z,37.38
2022-12-09T03:07:52.235Z,43.47
2022-12-09T03:10:37.775Z,42.55
2022-12-09T03:13:35.795Z,36.33
2022-12-09T03:16:36.957Z,44.78
2022-12-09T03:19:22.168Z,40.53
2022-12-09T03:21:54.685Z,42.20
2022-12-09T03:24:32.855Z,40.70
2022-12-09T03:27:08.036Z,39.40
2022-12-09T03:29:41.587Z,36.33
2022-12-09T03:32:15.461Z,37.83
2022-12-09T03:34:46.840Z,39.20
2022-12-09T03:37:18.977Z,44.45
2022-12-09T03:39:49.552Z,43.05
2022-12-09T03:42:28.522Z,41.83
2022-12-09T03:45:02.986Z,39.50
2022-12-09T03:47:34.154Z,39.72
2022-12-09T03:50:02.106Z,42.63
2022-12-09T03:52:46.590Z,43.13
2022-12-09T03:55:40.395Z,43.83
2022-12-09T03:58:31.681Z,43.15
2022-12-09T04:01:00.786Z,41.75
2022-12-09T04:05:56.682Z,37.67
2022-12-09T04:08:24.836Z,38.97
2022-12-09T04:10:52.703Z,41.88
2022-12-09T04:13:20.559Z,40.90
2022-12-09T04:15:48.475Z,40.17
2022-12-09T04:18:16.388Z,40.42
2022-12-09T04:20:44.055Z,38.25
2022-12-09T04:23:12.033Z,46.78
2022-12-09T04:25:39.672Z,41.13
2022-12-09T04:28:07.607Z,41.63
2022-12-09T04:30:35.174Z,44.78
2022-12-09T04:33:22.224Z,35.65
2022-12-09T04:35:49.901Z,35.63
2022-12-09T04:38:18.077Z,42.50
2022-12-09T04:40:45.621Z,36.83
2022-12-09T04:43:13.498Z,33.13
2022-12-09T04:45:41.371Z,37.72
2022-12-09T04:48:10.259Z,33.65
2022-12-09T04:50:41.872Z,32.53
2022-12-09T04:53:09.808Z,33.00
2022-12-09T04:55:37.777Z,29.15
2022-12-09T04:58:05.824Z,33.08
2022-12-09T05:00:33.872Z,31.38
2022-12-09T05:03:02.399Z,32.60
2022-12-09T05:05:30.735Z,30.83
2022-12-09T05:07:58.986Z,34.10
2022-12-09T05:10:27.291Z,29.48
2022-12-09T05:12:55.594Z,31.17
2022-12-09T05:15:23.317Z,26.80
2022-12-09T05:17:51.950Z,26.33
2022-12-09T05:20:20.431Z,27.02
2022-12-09T05:22:48.388Z,23.13
2022-12-09T05:25:16.358Z,25.58
2022-12-09T05:27:44.496Z,22.77
2022-12-09T05:30:13.384Z,26.63
2022-12-09T05:32:42.068Z,29.15
2022-12-09T05:35:09.861Z,30.15
2022-12-09T05:37:37.910Z,31.52
2022-12-09T05:40:07.651Z,30.00
2022-12-09T05:42:41.305Z,27.23
2022-12-09T05:45:11.106Z,26.45
2022-12-09T05:47:39.611Z,30.52
2022-12-09T05:50:09.224Z,27.05
2022-12-09T05:52:38.622Z,33.88
2022-12-09T05:55:09.468Z,36.83
2022-12-09T05:57:38.033Z,35.78
2022-12-09T06:00:09.638Z,35.72
2022-12-09T06:02:40.979Z,32.35
2022-12-09T06:05:10.224Z,29.90
2022-12-09T06:07:38.579Z,33.10
2022-12-09T06:10:07.746Z,31.60
2022-12-09T06:12:36.375Z,29.58
2022-12-09T06:15:09.652Z,31.75
2022-12-09T06:17:39.556Z,25.85
2022-12-09T06:20:09.479Z,24.58
2022-12-09T06:22:38.119Z,31.02
2022-12-09T06:25:06.684Z,33.78
2022-12-09T06:27:34.989Z,28.25
2022-12-09T06:30:03.336Z,26.15
2022-12-09T06:32:32.242Z,31.85
2022-12-09T06:35:00.497Z,32.30
2022-12-09T06:37:28.623Z,30.42
2022-12-09T06:39:56.566Z,36.30
2022-12-09T06:42:24.861Z,36.42
2022-12-09T06:44:52.845Z,31.02
2022-12-09T06:47:21.350Z,35.33
2022-12-09T06:49:49.581Z,39.05
2022-12-09T06:52:18.404Z,35.10
2022-12-09T06:54:46.771Z,39.88
2022-12-09T06:57:15.003Z,38.40
2022-12-09T06:59:42.880Z,41.47
2022-12-09T07:02:11.747Z,43.17
2022-12-09T07:04:39.713Z,34.03
2022-12-09T07:07:11.229Z,40.92
2022-12-09T07:09:39.814Z,32.10
2022-12-09T07:12:10.472Z,37.80
2022-12-09T07:14:38.735Z,37.22
2022-12-09T07:17:08.488Z,31.20
2022-12-09T07:19:37.179Z,48.28
2022-12-09T07:24:33.520Z,29.60
2022-12-09T07:27:07.519Z,21.77
2022-12-09T07:29:37.849Z,28.60
2022-12-09T07:32:06.366Z,27.08
2022-12-09T07:34:34.180Z,20.83
2022-12-09T07:37:02.474Z,25.23
2022-12-09T07:39:30.424Z,23.92
2022-12-09T07:41:58.932Z,27.40
2022-12-09T07:44:30.530Z,22.58
2022-12-09T07:46:58.749Z,23.63
2022-12-09T07:49:27.338Z,20.40
2022-12-09T07:51:55.615Z,25.90
2022-12-09T07:54:23.318Z,21.80
2022-12-09T07:56:51.365Z,27.58
2022-12-09T07:59:19.240Z,20.17
2022-12-09T08:01:48.018Z,22.42
2022-12-09T08:04:16.385Z,29.77
2022-12-09T08:06:44.749Z,29.65
2022-12-09T08:09:13.993Z,27.95
2022-12-09T08:11:43.485Z,24.73
2022-12-09T08:14:13.462Z,29.47
2022-12-09T08:16:43.890Z,26.60
2022-12-09T08:19:13.318Z,35.15
2022-12-09T08:21:41.862Z,33.42
2022-12-09T08:24:12.833Z,38.45
2022-12-09T08:26:42.196Z,27.58
2022-12-09T08:29:13.324Z,31.63
2022-12-09T08:31:43.925Z,30.80
2022-12-09T08:34:12.393Z,35.78
2022-12-09T08:36:41.664Z,31.30
2022-12-09T08:39:10.928Z,31.30
2022-12-09T08:41:40.289Z,26.80
2022-12-09T08:44:14.464Z,22.08
2022-12-09T08:46:47.326Z,20.45
2022-12-09T08:49:20.328Z,25.77
2022-12-09T08:51:51.140Z,24.48
2022-12-09T08:54:20.026Z,23.38
2022-12-09T08:56:51.518Z,24.60
2022-12-09T08:59:20.216Z,23.17
2022-12-09T09:01:48.643Z,20.15
2022-12-09T09:04:19.701Z,24.98
2022-12-09T09:06:50.778Z,26.63
2022-12-09T09:09:21.360Z,27.23
2022-12-09T09:11:49.701Z,26.10
2022-12-09T09:14:17.559Z,24.65
2022-12-09T09:16:46.433Z,27.23
2022-12-09T09:19:23.396Z,41.63
2022-12-09T09:21:52.512Z,34.60
2022-12-09T09:24:24.504Z,28.87
2022-12-09T09:26:54.012Z,24.98
2022-12-09T09:29:23.822Z,41.83
2022-12-09T09:31:56.224Z,25.67
2022-12-09T09:34:26.981Z,29.33
2022-12-09T09:36:56.548Z,23.85
2022-12-09T09:39:24.775Z,23.45
2022-12-09T09:42:06.280Z,33.90
2022-12-09T09:44:50.222Z,29.20
2022-12-09T09:47:45.494Z,30.70
2022-12-09T09:50:44.712Z,21.88
2022-12-09T09:53:20.974Z,29.35
2022-12-09T09:56:01.327Z,22.52
2022-12-09T09:58:42.038Z,28.00
2022-12-09T10:01:19.975Z,27.45
2022-12-09T10:04:22.912Z,20.58
2022-12-09T10:07:18.039Z,25.63
2022-12-09T10:10:16.881Z,32.72
2022-12-09T10:13:22.294Z,29.30
2022-12-09T10:16:25.191Z,34.88
2022-12-09T10:19:09.691Z,29.60
2022-12-09T10:21:44.267Z,26.42
2022-12-09T10:24:39.934Z,35.97
2022-12-09T10:27:14.620Z,34.90
2022-12-09T10:29:57.778Z,30.30
2022-12-09T10:32:30.091Z,35.67
2022-12-09T10:34:59.244Z,31.60
2022-12-09T10:37:36.848Z,41.17
2022-12-09T10:40:27.790Z,37.92
2022-12-09T10:43:18.426Z,44.30
2022-12-09T10:48:57.962Z,49.53
2022-12-09T10:51:34.746Z,65.20
2022-12-09T10:54:15.377Z,63.15
2022-12-09T10:57:12.522Z,55.10
2022-12-09T10:59:55.385Z,51.03
2022-12-09T11:02:24.205Z,55.85
2022-12-09T11:07:26.958Z,64.78
2022-12-09T11:09:58.118Z,49.85
2022-12-09T11:12:33.464Z,61.22
2022-12-09T11:15:12.597Z,53.58
2022-12-09T11:17:55.967Z,64.20
2022-12-09T11:20:29.408Z,47.65
2022-12-09T11:23:14.468Z,63.63
2022-12-09T11:26:14.458Z,63.58
2022-12-09T11:28:42.112Z,46.05
2022-12-09T11:31:29.467Z,45.47
2022-12-09T11:34:04.415Z,42.50
2022-12-09T11:36:44.008Z,54.95
2022-12-09T11:39:26.269Z,44.53
2022-12-09T11:42:22.508Z,38.60
2022-12-09T11:45:05.113Z,38.25
2022-12-09T11:48:04.628Z,45.13
2022-12-09T11:50:35.004Z,54.35
2022-12-09T11:53:12.736Z,51.50
2022-12-09T11:56:18.458Z,39.85
2022-12-09T11:59:22.730Z,47.85
2022-12-09T12:02:17.371Z,56.45
2022-12-09T12:05:22.797Z,50.00
2022-12-09T12:08:27.111Z,48.35
2022-12-09T12:11:07.402Z,39.88
2022-12-09T12:13:47.222Z,43.38
2022-12-09T12:16:47.977Z,50.63
2022-12-09T12:19:31.129Z,49.33
2022-12-09T12:22:39.495Z,52.05
2022-12-09T12:25:40.262Z,62.15
2022-12-09T12:28:46.062Z,56.17
2022-12-09T12:31:41.383Z,68.60
2022-12-09T12:34:42.929Z,67.25
2022-12-09T12:37:19.423Z,70.70
2022-12-09T12:40:05.021Z,63.42
2022-12-09T12:43:25.138Z,66.53
2022-12-09T12:46:19.241Z,66.85
2022-12-09T12:49:05.398Z,77.43
2022-12-09T12:52:12.681Z,62.80
2022-12-09T12:55:36.548Z,73.60
2022-12-09T12:58:31.628Z,62.78
2022-12-09T13:01:22.920Z,76.13
2022-12-09T13:04:27.256Z,72.45
2022-12-09T13:07:41.924Z,53.08
2022-12-09T13:10:33.176Z,85.95
2022-12-09T13:13:02.982Z,64.95
2022-12-09T13:15:41.165Z,52.50
2022-12-09T13:18:35.960Z,65.75
2022-12-09T13:21:07.331Z,64.78
2022-12-09T13:24:27.198Z,78.07
2022-12-09T13:27:35.338Z,69.05
2022-12-09T13:30:20.258Z,66.38
2022-12-09T13:33:26.554Z,62.70
2022-12-09T13:36:34.577Z,58.40
2022-12-09T13:39:05.458Z,75.88
2022-12-09T13:41:56.016Z,47.22
2022-12-09T13:44:34.842Z,68.82
2022-12-09T13:47:26.810Z,55.47
2022-12-09T13:50:03.860Z,62.20
2022-12-09T13:53:07.264Z,70.95
2022-12-09T13:56:03.091Z,63.63
2022-12-09T13:59:11.593Z,70.90
2022-12-09T14:01:51.379Z,59.75
2022-12-09T14:04:28.308Z,67.30
2022-12-09T14:07:34.162Z,81.43
2022-12-09T14:10:02.390Z,58.00
2022-12-09T14:12:30.774Z,57.77
2022-12-09T14:15:03.086Z,64.05
2022-12-09T14:17:31.260Z,69.35
2022-12-09T14:20:26.677Z,72.03
2022-12-09T14:23:12.619Z,66.38
2022-12-09T14:25:58.554Z,59.42
2022-12-09T14:28:40.768Z,62.47
2022-12-09T14:31:09.325Z,52.88
2022-12-09T14:33:46.732Z,69.20
2022-12-09T14:36:14.395Z,74.20
2022-12-09T14:39:24.882Z,68.47
2022-12-09T14:42:09.927Z,66.60
2022-12-09T14:44:49.561Z,57.35
2022-12-09T14:47:33.074Z,76.90
2022-12-09T14:50:21.404Z,68.55
2022-12-09T14:52:57.721Z,82.85
2022-12-09T14:55:28.263Z,66.63
2022-12-09T14:58:00.132Z,68.05
2022-12-09T15:00:36.072Z,72.32
2022-12-09T15:03:42.571Z,55.72
2022-12-09T15:06:18.700Z,63.33
2022-12-09T15:08:48.323Z,77.53
2022-12-09T15:11:31.759Z,69.25
2022-12-09T15:14:23.016Z,62.65
2022-12-09T15:16:52.555Z,72.07
2022-12-09T15:19:58.565Z,73.10
2022-12-09T15:22:25.122Z,67.22
2022-12-09T15:24:53.751Z,72.97
2022-12-09T15:27:24.878Z,69.72
2022-12-09T15:29:54.147Z,66.97
2022-12-09T15:32:30.156Z,65.32
2022-12-09T15:35:23.951Z,62.22
2022-12-09T15:37:54.804Z,63.35
2022-12-09T15:40:22.981Z,65.85
2022-12-09T15:42:54.403Z,52.53
2022-12-09T15:45:35.378Z,57.55
2022-12-09T15:48:18.126Z,62.20
2022-12-09T15:50:57.387Z,53.80
2022-12-09T15:53:43.460Z,64.80
2022-12-09T15:56:42.068Z,73.85
2022-12-09T15:59:23.861Z,63.22
2022-12-09T16:01:55.886Z,52.35
2022-12-09T16:04:32.385Z,56.95
2022-12-09T16:07:09.162Z,51.15
2022-12-09T16:09:37.502Z,57.83
2022-12-09T16:12:23.543Z,57.20
2022-12-09T16:14:51.637Z,51.33
2022-12-09T16:17:27.324Z,47.95
2022-12-09T16:19:56.103Z,46.30
2022-12-09T16:22:32.059Z,58.90
2022-12-09T16:25:22.073Z,40.72
2022-12-09T16:28:01.677Z,50.35
2022-12-09T16:30:33.479Z,53.80
2022-12-09T16:33:03.202Z,50.60
2022-12-09T16:35:39.718Z,53.10
2022-12-09T16:38:10.385Z,51.65
2022-12-09T16:40:44.956Z,50.05
2022-12-09T16:43:19.105Z,45.72
2022-12-09T16:45:53.548Z,43.95
2022-12-09T16:48:24.903Z,46.03
2022-12-09T16:51:03.344Z,44.45
2022-12-09T16:53:39.227Z,56.67
2022-12-09T16:56:20.399Z,42.45
2022-12-09T16:58:48.448Z,36.28
2022-12-09T17:01:19.513Z,54.40
2022-12-09T17:03:56.610Z,34.33
2022-12-09T17:06:25.015Z,31.33
2022-12-09T17:08:52.696Z,57.28
2022-12-09T17:11:21.880Z,46.90
2022-12-09T17:13:50.544Z,55.03
2022-12-09T17:16:22.291Z,40.92
2022-12-09T17:18:50.588Z,51.53
2022-12-09T17:21:19.697Z,49.17
2022-12-09T17:23:47.502Z,41.13
2022-12-09T17:26:20.058Z,40.47
2022-12-09T17:28:49.174Z,40.15
2022-12-09T17:31:24.018Z,42.35
2022-12-09T17:33:53.132Z,36.50
2022-12-09T17:36:21.053Z,45.25
2022-12-09T17:38:48.717Z,30.98
2022-12-09T17:41:20.795Z,39.42
2022-12-09T17:43:48.492Z,34.88
2022-12-09T17:46:16.870Z,32.58
2022-12-09T17:48:45.098Z,29.67
2022-12-09T17:51:18.348Z,31.90
2022-12-09T17:53:48.879Z,44.65
2022-12-09T17:56:21.013Z,36.63
2022-12-09T17:58:59.825Z,47.55
2022-12-09T18:01:28.361Z,48.63
2022-12-09T18:04:06.250Z,42.88
2022-12-09T18:09:18.177Z,36.92
2022-12-09T18:11:47.012Z,40.55
2022-12-09T18:14:16.067Z,39.70
2022-12-09T18:16:50.020Z,46.10
2022-12-09T18:19:20.865Z,38.38
2022-12-09T18:21:48.876Z,40.08
2022-12-09T18:24:16.549Z,44.72
2022-12-09T18:26:45.556Z,39.95
2022-12-09T18:29:13.884Z,27.05
2022-12-09T18:31:45.836Z,34.47
2022-12-09T18:34:13.816Z,35.10
2022-12-09T18:36:42.016Z,40.55
2022-12-09T18:39:09.886Z,34.08
2022-12-09T18:41:37.924Z,45.00
2022-12-09T18:44:08.687Z,30.63
2022-12-09T18:46:41.103Z,19.08
2022-12-09T18:49:17.306Z,34.22
2022-12-09T18:51:47.760Z,37.78
2022-12-09T18:54:20.595Z,23.45
2022-12-09T18:56:48.585Z,32.03
2022-12-09T18:59:16.473Z,33.42
2022-12-09T19:01:47.666Z,27.73
2022-12-09T19:04:19.794Z,35.42
2022-12-09T19:06:50.477Z,35.50
2022-12-09T19:09:22.908Z,26.83
2022-12-09T19:11:52.917Z,30.00
2022-12-09T19:14:23.950Z,33.15
2022-12-09T19:16:52.725Z,27.02
2022-12-09T19:19:25.678Z,32.25
2022-12-09T19:21:54.964Z,20.95
2022-12-09T19:24:28.767Z,34.17
2022-12-09T19:26:57.991Z,29.42
2022-12-09T19:29:27.985Z,37.30
2022-12-09T19:31:57.377Z,31.75
2022-12-09T19:34:28.507Z,29.33
2022-12-09T19:37:00.411Z,35.22
2022-12-09T19:39:31.504Z,29.00
2022-12-09T19:42:01.424Z,30.73
2022-12-09T19:45:00.835Z,32.80
2022-12-09T19:47:17.920Z,30.15
2022-12-09T19:49:45.588Z,36.05
2022-12-09T19:52:14.046Z,33.90
2022-12-09T19:54:41.718Z,34.00
2022-12-09T19:57:09.695Z,30.98
2022-12-09T19:59:37.929Z,22.83
2022-12-09T20:02:08.019Z,24.63
2022-12-09T20:04:51.506Z,35.55
2022-12-09T20:07:20.747Z,34.40
2022-12-09T20:09:49.238Z,24.33
2022-12-09T20:12:17.295Z,32.03
2022-12-09T20:14:45.036Z,20.08
2022-12-09T20:17:13.048Z,26.10
2022-12-09T20:19:40.675Z,22.40
2022-12-09T20:22:08.610Z,30.92
2022-12-09T20:24:36.235Z,32.97
2022-12-09T20:27:04.246Z,31.88
2022-12-09T20:29:37.250Z,24.60
2022-12-09T20:32:09.086Z,42.40
2022-12-09T20:34:36.914Z,35.50
2022-12-09T20:37:05.720Z,33.75
2022-12-09T20:39:33.418Z,26.92
2022-12-09T20:42:01.504Z,18.95
2022-12-09T20:44:29.312Z,30.60
2022-12-09T20:46:57.591Z,17.73
2022-12-09T20:49:27.183Z,33.50
2022-12-09T20:51:55.632Z,32.30
2022-12-09T20:54:23.801Z,35.72
2022-12-09T20:56:53.148Z,31.35
2022-12-09T20:59:20.816Z,30.83
2022-12-09T21:01:48.947Z,20.73
2022-12-09T21:04:18.139Z,27.10
2022-12-09T21:06:46.469Z,22.70
2022-12-09T21:09:21.956Z,36.10
2022-12-09T21:11:51.172Z,22.30
2022-12-09T21:14:19.634Z,31.52
2022-12-09T21:16:50.681Z,23.48
2022-12-09T21:19:25.007Z,28.80
2022-12-09T21:21:54.857Z,30.17
2022-12-09T21:24:24.314Z,26.85
2022-12-09T21:26:55.440Z,21.35
2022-12-09T21:29:31.207Z,28.85
2022-12-09T21:32:01.861Z,28.25
2022-12-09T21:34:30.443Z,31.15
2022-12-09T21:36:58.396Z,20.20
2022-12-09T21:39:28.089Z,26.13
2022-12-09T21:41:56.338Z,19.13
2022-12-09T21:44:25.667Z,26.35
2022-12-09T21:46:54.028Z,30.17
2022-12-09T21:49:22.509Z,28.52
2022-12-09T21:51:50.423Z,26.80
2022-12-09T21:54:18.043Z,24.80
2022-12-09T21:56:46.497Z,20.42
2022-12-09T21:59:14.996Z,23.70
2022-12-09T22:01:43.965Z,26.38
2022-12-09T22:04:16.318Z,28.33
2022-12-09T22:06:49.320Z,28.40
2022-12-09T22:09:20.853Z,34.60
2022-12-09T22:11:49.216Z,35.10
2022-12-09T22:14:17.466Z,30.33
2022-12-09T22:16:46.558Z,26.90
2022-12-09T22:19:19.578Z,26.95
2022-12-09T22:21:48.589Z,19.70
2022-12-09T22:24:17.668Z,19.10
2022-12-09T22:26:46.302Z,24.42
2022-12-09T22:29:17.174Z,19.77
2022-12-09T22:31:45.959Z,30.05
2022-12-09T22:34:17.837Z,23.23
2022-12-09T22:36:48.538Z,21.95
2022-12-09T22:39:19.262Z,27.15
2022-12-09T22:41:47.867Z,29.17
2022-12-09T22:44:19.058Z,24.15
2022-12-09T22:46:49.132Z,25.25
2022-12-09T22:49:18.086Z,26.95
2022-12-09T22:51:47.656Z,24.17
2022-12-09T22:54:16.098Z,22.95
2022-12-09T22:56:45.610Z,21.83
2022-12-09T22:59:14.183Z,17.77
2022-12-09T23:01:49.082Z,31.88
2022-12-09T23:04:21.881Z,22.17
2022-12-09T23:06:51.101Z,25.85
2022-12-09T23:09:22.663Z,25.85
2022-12-09T23:11:52.479Z,21.65
2022-12-09T23:14:20.547Z,21.02
2022-12-09T23:16:48.421Z,28.15
2022-12-09T23:19:16.709Z,21.33
2022-12-09T23:21:44.765Z,24.33
2022-12-09T23:24:21.045Z,20.75
2022-12-09T23:26:56.209Z,21.17
2022-12-09T23:29:24.341Z,19.70
2022-12-09T23:31:52.959Z,26.90
2022-12-09T23:34:20.831Z,18.98
2022-12-09T23:36:48.821Z,22.05
2022-12-09T23:39:18.808Z,22.30
2022-12-09T23:41:47.333Z,24.67
2022-12-09T23:44:18.393Z,23.02
2022-12-09T23:46:47.908Z,24.25
2022-12-09T23:49:16.321Z,23.60
2022-12-09T23:51:45.193Z,16.57
2022-12-09T23:54:14.991Z,25.85
2022-12-09T23:56:48.139Z,26.60
2022-12-09T23:59:17.919Z,19.10
